createdAt,value
2019-03-05T00:02:06.935Z,38.50
2019-03-05T00:04:40.089Z,35.83
2019-03-05T00:07:11.592Z,35.45
2019-03-05T00:09:42.756Z,41.05
2019-03-05T00:12:15.549Z,38.92
2019-03-05T00:14:47.155Z,41.85
2019-03-05T00:17:19.503Z,41.10
2019-03-05T00:19:51.872Z,39.95
2019-03-05T00:22:23.238Z,37.70
2019-03-05T00:25:02.161Z,39.18
2019-03-05T00:27:35.843Z,41.35
2019-03-05T00:30:32.770Z,42.60
2019-03-05T00:33:08.436Z,36.58
2019-03-05T00:35:59.054Z,34.38
2019-03-05T00:38:49.895Z,37.73
2019-03-05T00:41:33.154Z,39.63
2019-03-05T00:44:17.318Z,38.53
2019-03-05T00:47:03.217Z,37.60
2019-03-05T00:49:46.837Z,35.90
2019-03-05T00:52:21.803Z,40.08
2019-03-05T00:55:03.753Z,38.60
2019-03-05T00:57:43.718Z,42.35
2019-03-05T01:00:24.491Z,41.80
2019-03-05T01:03:00.092Z,38.23
2019-03-05T01:05:45.828Z,38.42
2019-03-05T01:08:21.679Z,38.92
2019-03-05T01:10:54.825Z,36.90
2019-03-05T01:13:27.611Z,42.30
2019-03-05T01:16:00.485Z,42.13
2019-03-05T01:18:31.761Z,40.60
2019-03-05T01:21:04.869Z,43.13
2019-03-05T01:23:40.371Z,36.15
2019-03-05T01:26:11.745Z,41.98
2019-03-05T01:28:42.871Z,37.30
2019-03-05T01:31:21.982Z,34.73
2019-03-05T01:33:57.724Z,34.80
2019-03-05T01:36:30.482Z,38.35
2019-03-05T01:39:03.254Z,40.03
2019-03-05T01:41:36.160Z,39.03
2019-03-05T01:44:08.146Z,38.15
2019-03-05T01:46:39.366Z,38.80
2019-03-05T01:49:10.509Z,42.67
2019-03-05T01:51:41.767Z,36.60
2019-03-05T01:54:12.926Z,44.85
2019-03-05T01:56:44.265Z,38.90
2019-03-05T01:59:15.510Z,41.90
2019-03-05T02:01:46.769Z,40.08
2019-03-05T02:04:17.988Z,38.65
2019-03-05T02:06:49.165Z,38.30
2019-03-05T02:09:20.300Z,38.55
2019-03-05T02:11:51.473Z,34.80
2019-03-05T02:14:22.575Z,39.30
2019-03-05T02:16:53.791Z,37.10
2019-03-05T02:19:37.137Z,38.78
2019-03-05T02:22:11.748Z,39.73
2019-03-05T02:25:04.035Z,37.20
2019-03-05T02:27:41.188Z,40.58
2019-03-05T02:30:36.014Z,34.88
2019-03-05T02:33:43.612Z,38.15
2019-03-05T02:36:18.018Z,37.05
2019-03-05T02:39:15.712Z,47.83
2019-03-05T02:41:52.529Z,39.03
2019-03-05T02:44:26.948Z,45.98
2019-03-05T02:47:09.886Z,42.83
2019-03-05T02:49:51.060Z,34.63
2019-03-05T02:55:15.011Z,39.33
2019-03-05T02:57:45.167Z,40.00
2019-03-05T03:00:17.947Z,43.13
2019-03-05T03:02:53.360Z,41.53
2019-03-05T03:05:27.151Z,41.48
2019-03-05T03:07:59.923Z,39.15
2019-03-05T03:10:31.489Z,36.93
2019-03-05T03:13:02.848Z,42.53
2019-03-05T03:15:34.001Z,41.92
2019-03-05T03:18:05.229Z,43.80
2019-03-05T03:20:36.417Z,39.27
2019-03-05T03:23:09.401Z,39.08
2019-03-05T03:25:42.698Z,40.70
2019-03-05T03:28:15.145Z,37.60
2019-03-05T03:30:46.473Z,40.55
2019-03-05T03:33:17.812Z,36.77
2019-03-05T03:35:49.042Z,38.50
2019-03-05T03:38:20.226Z,36.15
2019-03-05T03:40:51.497Z,38.17
2019-03-05T03:43:22.681Z,39.63
2019-03-05T03:45:53.880Z,40.35
2019-03-05T03:48:25.075Z,37.28
2019-03-05T03:50:56.395Z,42.03
2019-03-05T03:53:29.726Z,33.40
2019-03-05T03:56:01.059Z,37.38
2019-03-05T03:58:32.302Z,39.15
2019-03-05T04:01:46.841Z,34.95
2019-03-05T04:04:18.021Z,39.13
2019-03-05T04:06:49.243Z,32.03
2019-03-05T04:09:20.903Z,32.83
2019-03-05T04:11:52.877Z,33.00
2019-03-05T04:14:24.145Z,41.05
2019-03-05T04:16:55.323Z,32.78
2019-03-05T04:19:28.114Z,28.75
2019-03-05T04:21:59.362Z,36.73
2019-03-05T04:24:30.579Z,36.45
2019-03-05T04:27:01.788Z,33.20
2019-03-05T04:29:33.260Z,35.17
2019-03-05T04:32:05.833Z,32.33
2019-03-05T04:34:36.962Z,31.57
2019-03-05T04:37:09.718Z,32.42
2019-03-05T04:39:40.969Z,38.38
2019-03-05T04:42:12.168Z,30.70
2019-03-05T04:44:45.006Z,28.83
2019-03-05T04:47:17.198Z,31.25
2019-03-05T04:49:49.992Z,37.75
2019-03-05T04:52:22.363Z,37.60
2019-03-05T04:54:53.498Z,34.95
2019-03-05T04:57:24.789Z,33.25
2019-03-05T04:59:58.229Z,29.35
2019-03-05T05:02:30.701Z,31.65
2019-03-05T05:05:01.872Z,32.35
2019-03-05T05:07:34.074Z,33.28
2019-03-05T05:10:07.136Z,35.43
2019-03-05T05:12:38.322Z,34.43
2019-03-05T05:15:21.322Z,30.65
2019-03-05T05:17:52.539Z,41.88
2019-03-05T05:20:23.735Z,35.85
2019-03-05T05:22:54.920Z,38.95
2019-03-05T05:25:27.124Z,37.70
2019-03-05T05:30:34.376Z,30.90
2019-03-05T05:33:07.317Z,34.58
2019-03-05T05:35:38.508Z,34.00
2019-03-05T05:38:11.220Z,30.50
2019-03-05T05:40:46.148Z,34.85
2019-03-05T05:43:25.718Z,29.60
2019-03-05T05:45:56.887Z,33.88
2019-03-05T05:48:28.086Z,29.05
2019-03-05T05:50:59.292Z,31.97
2019-03-05T05:53:31.118Z,36.70
2019-03-05T05:56:02.364Z,32.67
2019-03-05T05:58:33.761Z,32.98
2019-03-05T06:01:06.869Z,33.75
2019-03-05T06:03:38.134Z,34.45
2019-03-05T06:06:09.273Z,32.15
2019-03-05T06:08:41.486Z,33.00
2019-03-05T06:11:12.639Z,30.43
2019-03-05T06:13:45.553Z,29.35
2019-03-05T06:16:16.634Z,35.17
2019-03-05T06:18:47.843Z,34.10
2019-03-05T06:21:19.065Z,31.23
2019-03-05T06:23:50.351Z,36.15
2019-03-05T06:26:21.557Z,34.43
2019-03-05T06:28:53.433Z,32.30
2019-03-05T06:31:24.690Z,37.03
2019-03-05T06:33:55.888Z,35.35
2019-03-05T06:36:27.119Z,31.37
2019-03-05T06:38:58.376Z,30.50
2019-03-05T06:41:29.623Z,35.15
2019-03-05T06:44:02.301Z,38.05
2019-03-05T06:46:34.746Z,33.55
2019-03-05T06:49:05.991Z,33.13
2019-03-05T06:51:37.089Z,37.23
2019-03-05T06:54:08.316Z,39.27
2019-03-05T06:56:39.606Z,32.03
2019-03-05T06:59:10.953Z,34.03
2019-03-05T07:01:42.296Z,38.05
2019-03-05T07:04:16.324Z,33.53
2019-03-05T07:06:49.583Z,34.53
2019-03-05T07:09:32.707Z,36.35
2019-03-05T07:12:14.482Z,36.95
2019-03-05T07:15:20.463Z,39.85
2019-03-05T07:17:54.845Z,33.58
2019-03-05T07:20:44.356Z,46.13
2019-03-05T07:23:30.341Z,33.18
2019-03-05T07:26:01.702Z,36.93
2019-03-05T07:28:34.887Z,35.50
2019-03-05T07:31:06.701Z,35.33
2019-03-05T07:33:39.951Z,37.08
2019-03-05T07:36:11.196Z,33.75
2019-03-05T07:38:42.401Z,33.78
2019-03-05T07:41:13.642Z,32.63
2019-03-05T07:43:44.811Z,31.70
2019-03-05T07:46:17.929Z,30.72
2019-03-05T07:48:49.112Z,35.35
2019-03-05T07:51:20.324Z,33.23
2019-03-05T07:54:59.251Z,33.73
2019-03-05T07:57:30.589Z,32.98
2019-03-05T08:00:01.808Z,31.82
2019-03-05T08:02:37.213Z,30.05
2019-03-05T08:05:11.538Z,33.95
2019-03-05T08:07:44.447Z,31.70
2019-03-05T08:10:25.301Z,35.70
2019-03-05T08:13:12.049Z,34.30
2019-03-05T08:16:13.493Z,33.88
2019-03-05T08:18:44.855Z,33.65
2019-03-05T08:21:16.633Z,33.63
2019-03-05T08:23:48.547Z,38.23
2019-03-05T08:26:22.348Z,42.25
2019-03-05T08:28:55.258Z,33.67
2019-03-05T08:31:26.438Z,30.30
2019-03-05T08:33:57.730Z,34.53
2019-03-05T08:36:29.523Z,31.35
2019-03-05T08:39:03.137Z,34.43
2019-03-05T08:41:35.999Z,41.23
2019-03-05T08:44:07.441Z,39.00
2019-03-05T08:46:39.713Z,35.08
2019-03-05T08:49:11.472Z,35.73
2019-03-05T08:51:44.194Z,28.55
2019-03-05T08:54:16.364Z,31.77
2019-03-05T08:56:48.276Z,32.42
2019-03-05T08:59:19.680Z,35.60
2019-03-05T09:01:51.896Z,37.10
2019-03-05T09:04:24.151Z,38.95
2019-03-05T09:06:55.410Z,35.40
2019-03-05T09:09:28.883Z,37.65
2019-03-05T09:12:00.882Z,38.28
2019-03-05T09:14:34.320Z,35.25
2019-03-05T09:17:06.500Z,33.92
2019-03-05T09:19:37.588Z,33.45
2019-03-05T09:22:09.801Z,32.40
2019-03-05T09:24:41.009Z,37.35
2019-03-05T09:27:12.156Z,57.00
2019-03-05T09:29:44.615Z,29.45
2019-03-05T09:32:16.049Z,33.05
2019-03-05T09:34:49.122Z,30.02
2019-03-05T09:37:20.414Z,28.60
2019-03-05T09:39:51.882Z,34.35
2019-03-05T09:42:23.411Z,28.15
2019-03-05T09:44:54.693Z,30.32
2019-03-05T09:47:25.947Z,30.88
2019-03-05T09:49:57.325Z,27.93
2019-03-05T09:52:28.509Z,32.58
2019-03-05T09:54:59.809Z,28.50
2019-03-05T09:57:31.020Z,33.70
2019-03-05T10:00:02.230Z,35.73
2019-03-05T10:02:34.191Z,33.70
2019-03-05T10:05:08.567Z,37.85
2019-03-05T10:07:39.809Z,35.00
2019-03-05T10:10:19.286Z,39.80
2019-03-05T10:12:50.451Z,39.18
2019-03-05T10:15:22.845Z,39.75
2019-03-05T10:17:55.082Z,34.75
2019-03-05T10:20:33.055Z,39.20
2019-03-05T10:23:05.913Z,34.67
2019-03-05T10:25:37.084Z,35.65
2019-03-05T10:28:08.569Z,36.03
2019-03-05T10:30:45.566Z,33.65
2019-03-05T10:33:18.242Z,28.07
2019-03-05T10:35:49.525Z,29.50
2019-03-05T10:38:20.923Z,25.08
2019-03-05T10:40:56.730Z,26.50
2019-03-05T10:43:28.718Z,23.98
2019-03-05T10:46:07.133Z,23.77
2019-03-05T10:48:39.347Z,28.15
2019-03-05T10:51:12.515Z,20.82
2019-03-05T10:53:46.521Z,20.48
2019-03-05T10:56:17.909Z,17.50
2019-03-05T10:58:49.460Z,17.65
2019-03-05T11:01:21.807Z,22.35
2019-03-05T11:03:52.960Z,15.83
2019-03-05T11:06:24.129Z,14.68
2019-03-05T11:08:56.590Z,18.73
2019-03-05T11:11:28.047Z,14.87
2019-03-05T11:13:59.636Z,18.23
2019-03-05T11:16:31.350Z,14.07
2019-03-05T11:19:02.486Z,17.98
2019-03-05T11:21:33.592Z,17.98
2019-03-05T11:24:04.816Z,14.18
2019-03-05T11:26:36.165Z,14.70
2019-03-05T11:29:07.362Z,18.42
2019-03-05T11:31:38.622Z,19.07
2019-03-05T11:34:09.989Z,18.10
2019-03-05T11:36:41.208Z,20.45
2019-03-05T11:39:13.087Z,18.82
2019-03-05T11:41:44.384Z,23.57
2019-03-05T11:44:16.713Z,22.85
2019-03-05T11:46:47.902Z,15.55
2019-03-05T11:49:19.073Z,16.62
2019-03-05T11:51:50.176Z,15.72
2019-03-05T11:54:21.332Z,18.73
2019-03-05T11:56:52.592Z,16.42
2019-03-05T11:59:23.691Z,15.75
2019-03-05T12:04:25.199Z,19.53
2019-03-05T12:06:56.343Z,16.75
2019-03-05T12:09:27.753Z,16.42
2019-03-05T12:12:00.540Z,17.07
2019-03-05T12:14:33.165Z,15.60
2019-03-05T12:17:04.343Z,14.53
2019-03-05T12:19:35.401Z,15.95
2019-03-05T12:24:36.929Z,16.10
2019-03-05T12:27:10.218Z,12.98
2019-03-05T12:29:41.489Z,15.28
2019-03-05T12:32:15.179Z,13.72
2019-03-05T12:34:45.639Z,12.65
2019-03-05T12:37:16.791Z,15.38
2019-03-05T12:42:19.978Z,16.45
2019-03-05T12:44:53.085Z,13.00
2019-03-05T12:47:29.817Z,15.30
2019-03-05T12:50:00.978Z,16.65
2019-03-05T12:52:34.386Z,15.60
2019-03-05T12:55:08.357Z,13.90
2019-03-05T12:57:39.515Z,14.75
2019-03-05T13:00:24.484Z,14.25
2019-03-05T13:02:55.860Z,14.33
2019-03-05T13:05:27.109Z,10.95
2019-03-05T13:07:58.708Z,14.13
2019-03-05T13:10:36.042Z,14.03
2019-03-05T13:13:04.842Z,12.40
2019-03-05T13:15:42.937Z,14.13
2019-03-05T13:18:14.508Z,16.27
2019-03-05T13:20:45.919Z,13.25
2019-03-05T13:23:17.071Z,13.98
2019-03-05T13:25:48.278Z,9.68
2019-03-05T13:28:20.954Z,12.05
2019-03-05T13:30:55.296Z,12.98
2019-03-05T13:33:28.855Z,13.98
2019-03-05T13:36:00.027Z,10.78
2019-03-05T13:38:31.325Z,8.33
2019-03-05T13:41:03.915Z,10.65
2019-03-05T13:46:07.774Z,10.60
2019-03-05T13:48:57.795Z,7.95
2019-03-05T13:51:59.595Z,9.73
2019-03-05T13:55:40.342Z,9.33
2019-03-05T13:58:14.878Z,9.88
2019-03-05T14:00:46.005Z,7.83
2019-03-05T14:03:21.598Z,8.98
2019-03-05T14:05:56.054Z,8.60
2019-03-05T14:08:33.269Z,9.23
2019-03-05T14:11:04.406Z,13.53
2019-03-05T14:13:35.663Z,8.83
2019-03-05T14:16:08.173Z,11.93
2019-03-05T14:18:42.192Z,11.75
2019-03-05T14:21:13.220Z,11.50
2019-03-05T14:26:14.976Z,16.42
2019-03-05T14:28:46.148Z,10.70
2019-03-05T14:31:17.408Z,13.32
2019-03-05T14:33:50.491Z,8.20
2019-03-05T14:36:21.750Z,11.97
2019-03-05T14:38:53.990Z,10.43
2019-03-05T14:41:25.266Z,7.70
2019-03-05T14:43:56.493Z,11.45
2019-03-05T14:46:27.557Z,11.45
2019-03-05T14:48:58.723Z,7.70
2019-03-05T14:51:29.841Z,6.25
2019-03-05T14:54:01.082Z,6.60
2019-03-05T14:56:32.965Z,7.62
2019-03-05T14:59:05.131Z,8.43
2019-03-05T15:01:36.349Z,10.05
2019-03-05T15:04:07.957Z,9.68
2019-03-05T15:06:40.799Z,9.73
2019-03-05T15:09:13.714Z,10.20
2019-03-05T15:11:45.210Z,10.88
2019-03-05T15:14:16.533Z,16.12
2019-03-05T15:16:49.350Z,9.55
2019-03-05T15:19:21.799Z,9.48
2019-03-05T15:21:54.556Z,9.48
2019-03-05T15:24:27.252Z,8.60
2019-03-05T15:26:58.423Z,11.10
2019-03-05T15:29:29.594Z,7.97
2019-03-05T15:33:08.450Z,12.50
2019-03-05T15:35:39.559Z,12.90
2019-03-05T15:38:10.670Z,10.40
2019-03-05T15:43:13.439Z,12.00
2019-03-05T15:45:44.552Z,11.90
2019-03-05T15:48:15.720Z,12.55
2019-03-05T15:50:46.923Z,14.58
2019-03-05T15:53:18.152Z,12.28
2019-03-05T15:55:49.290Z,9.63
2019-03-05T15:58:20.423Z,12.00
2019-03-05T16:00:51.593Z,11.45
2019-03-05T16:03:24.364Z,12.68
2019-03-05T16:05:57.759Z,10.95
2019-03-05T16:08:36.395Z,10.18
2019-03-05T16:11:07.592Z,11.38
2019-03-05T16:13:39.024Z,13.90
2019-03-05T16:16:10.284Z,12.65
2019-03-05T16:18:41.751Z,10.78
2019-03-05T16:21:13.072Z,15.88
2019-03-05T16:23:44.212Z,15.90
2019-03-05T16:26:15.542Z,12.80
2019-03-05T16:28:46.643Z,15.48
2019-03-05T16:31:22.127Z,15.90
2019-03-05T16:34:01.718Z,11.97
2019-03-05T16:36:41.396Z,13.68
2019-03-05T16:39:14.373Z,11.03
2019-03-05T16:41:47.711Z,13.93
2019-03-05T16:44:25.658Z,11.10
2019-03-05T16:47:14.569Z,11.22
2019-03-05T16:49:47.407Z,11.68
2019-03-05T16:52:25.941Z,11.50
2019-03-05T16:54:58.698Z,15.78
2019-03-05T16:57:47.479Z,15.40
2019-03-05T17:00:26.328Z,13.18
2019-03-05T17:03:07.584Z,17.02
2019-03-05T17:05:46.185Z,11.43
2019-03-05T17:08:24.661Z,13.93
2019-03-05T17:11:06.633Z,14.23
2019-03-05T17:13:37.897Z,10.70
2019-03-05T17:16:08.897Z,14.23
2019-03-05T17:18:40.628Z,17.35
2019-03-05T17:21:11.957Z,15.20
2019-03-05T17:23:44.274Z,16.12
2019-03-05T17:26:15.657Z,12.60
2019-03-05T17:28:49.695Z,13.62
2019-03-05T17:31:20.972Z,15.50
2019-03-05T17:33:52.152Z,18.23
2019-03-05T17:36:23.328Z,13.88
2019-03-05T17:38:56.032Z,17.48
2019-03-05T17:41:27.379Z,16.23
2019-03-05T17:43:58.875Z,17.62
2019-03-05T17:46:30.113Z,18.37
2019-03-05T17:49:04.961Z,15.88
2019-03-05T17:51:40.767Z,15.70
2019-03-05T17:54:16.074Z,16.93
2019-03-05T17:56:48.347Z,16.77
2019-03-05T17:59:19.416Z,18.55
2019-03-05T18:01:51.164Z,16.85
2019-03-05T18:04:25.380Z,16.50
2019-03-05T18:06:56.509Z,16.20
2019-03-05T18:09:28.506Z,14.00
2019-03-05T18:12:01.420Z,17.07
2019-03-05T18:14:33.822Z,16.60
2019-03-05T18:17:05.016Z,12.80
2019-03-05T18:19:36.586Z,15.20
2019-03-05T18:22:07.714Z,15.63
2019-03-05T18:24:38.988Z,18.42
2019-03-05T18:27:10.284Z,15.20
2019-03-05T18:29:41.812Z,14.90
2019-03-05T18:32:13.095Z,16.15
2019-03-05T18:34:44.427Z,16.42
2019-03-05T18:37:15.846Z,15.58
2019-03-05T18:39:47.115Z,15.23
2019-03-05T18:44:51.482Z,17.10
2019-03-05T18:47:22.681Z,20.20
2019-03-05T18:49:54.257Z,16.87
2019-03-05T18:52:25.504Z,19.50
2019-03-05T18:57:27.374Z,19.80
2019-03-05T18:59:58.522Z,19.77
2019-03-05T19:02:29.719Z,21.62
2019-03-05T19:05:00.930Z,24.43
2019-03-05T19:07:32.139Z,24.50
2019-03-05T19:10:03.563Z,29.75
2019-03-05T19:12:35.220Z,27.73
2019-03-05T19:17:38.530Z,20.25
2019-03-05T19:22:41.771Z,15.90
2019-03-05T19:25:16.132Z,14.93
2019-03-05T19:27:48.281Z,19.15
2019-03-05T19:30:29.011Z,14.95
2019-03-05T19:33:00.052Z,19.20
2019-03-05T19:35:32.354Z,22.70
2019-03-05T19:38:05.124Z,16.00
2019-03-05T19:40:38.945Z,16.32
2019-03-05T19:43:10.222Z,17.17
2019-03-05T19:45:41.336Z,18.92
2019-03-05T19:48:14.572Z,16.87
2019-03-05T19:50:47.235Z,15.70
2019-03-05T19:53:18.313Z,18.55
2019-03-05T19:58:20.171Z,15.15
2019-03-05T20:00:59.544Z,15.30
2019-03-05T20:03:30.712Z,14.78
2019-03-05T20:06:01.983Z,13.78
2019-03-05T20:08:39.911Z,13.38
2019-03-05T20:11:06.317Z,15.50
2019-03-05T20:13:38.576Z,18.57
2019-03-05T20:16:09.692Z,16.32
2019-03-05T20:18:40.909Z,13.98
2019-03-05T20:21:14.263Z,14.05
2019-03-05T20:23:45.445Z,13.53
2019-03-05T20:28:46.988Z,12.45
2019-03-05T20:31:19.934Z,16.00
2019-03-05T20:33:51.987Z,11.15
2019-03-05T20:36:23.204Z,11.30
2019-03-05T20:38:54.542Z,12.88
2019-03-05T20:41:25.901Z,14.00
2019-03-05T20:43:57.742Z,11.78
2019-03-05T20:46:28.949Z,15.48
2019-03-05T20:49:01.150Z,12.82
2019-03-05T20:51:39.394Z,11.68
2019-03-05T20:54:11.493Z,15.43
2019-03-05T20:56:42.766Z,16.07
2019-03-05T20:59:13.832Z,17.10
2019-03-05T21:04:15.395Z,17.73
2019-03-05T21:06:46.812Z,15.78
2019-03-05T21:09:23.057Z,17.37
2019-03-05T21:11:55.870Z,18.12
2019-03-05T21:14:27.064Z,15.38
2019-03-05T21:17:01.295Z,17.07
2019-03-05T21:19:32.516Z,16.95
2019-03-05T21:22:03.990Z,14.85
2019-03-05T21:24:36.346Z,16.40
2019-03-05T21:27:07.619Z,12.58
2019-03-05T21:29:38.742Z,15.90
2019-03-05T21:32:09.926Z,14.75
2019-03-05T21:34:42.622Z,14.07
2019-03-05T21:37:13.966Z,14.65
2019-03-05T21:39:45.140Z,11.20
2019-03-05T21:42:18.927Z,12.43
2019-03-05T21:45:44.399Z,15.95
2019-03-05T21:49:27.773Z,14.87
2019-03-05T21:52:23.164Z,13.38
2019-03-05T21:54:54.288Z,13.45
2019-03-05T21:57:25.536Z,12.98
2019-03-05T21:59:56.707Z,14.33
2019-03-05T22:02:27.879Z,15.43
2019-03-05T22:05:00.326Z,15.05
2019-03-05T22:07:31.531Z,14.05
2019-03-05T22:10:05.193Z,13.40
2019-03-05T22:12:36.369Z,11.93
2019-03-05T22:15:11.312Z,12.58
2019-03-05T22:17:42.383Z,14.70
2019-03-05T22:20:19.265Z,12.98
2019-03-05T22:22:50.587Z,10.23
2019-03-05T22:25:22.817Z,15.20
2019-03-05T22:27:54.011Z,9.20
2019-03-05T22:30:27.186Z,13.40
2019-03-05T22:32:58.407Z,14.07
2019-03-05T22:35:29.677Z,10.60
2019-03-05T22:38:02.436Z,10.35
2019-03-05T22:40:33.951Z,10.38
2019-03-05T22:45:36.097Z,8.95
2019-03-05T22:48:07.287Z,8.93
2019-03-05T22:53:08.988Z,11.33
2019-03-05T22:55:40.156Z,12.45
2019-03-05T22:58:11.248Z,9.70
2019-03-05T23:00:55.853Z,10.80
2019-03-05T23:03:30.305Z,11.45
2019-03-05T23:06:05.601Z,9.28
2019-03-05T23:08:38.167Z,11.35
2019-03-05T23:11:09.441Z,9.00
2019-03-05T23:13:40.607Z,9.88
2019-03-05T23:16:11.829Z,8.78
2019-03-05T23:18:42.970Z,10.32
2019-03-05T23:21:14.214Z,10.98
2019-03-05T23:23:45.464Z,12.40
2019-03-05T23:26:16.625Z,8.20
2019-03-05T23:28:47.703Z,7.08
2019-03-05T23:33:50.542Z,12.20
2019-03-05T23:36:21.947Z,8.85
2019-03-05T23:38:53.041Z,8.20
2019-03-05T23:41:25.542Z,6.58
2019-03-05T23:43:56.690Z,7.60
2019-03-05T23:46:29.234Z,8.83
2019-03-05T23:49:02.260Z,8.75
2019-03-05T23:51:33.323Z,7.83
2019-03-05T23:56:34.826Z,7.42
2019-03-05T23:59:10.908Z,14.85
